Time;durP1;ratioP1;P1;durP2;ratioP2;P2;SDS_P1;SDS_P2;PMS_P1;PMS_P2;Temp;Humidity;BMP_temperature;BMP_pressure;BME280_temperature;BME280_humidity;BME280_pressure;Samples;Min_cycle;Max_cycle;Signal;HPM_P1;HPM_P2
2023/10/01 00:00:43;;;;;;;6.32;2.40;;;;;;;16.02;77.24;102475.53;4974390;28;96871;-26
2023/10/01 00:03:09;;;;;;;14.00;3.40;;;;;;;16.02;77.01;102472.81;4974011;28;101328;-26
2023/10/01 00:05:35;;;;;;;4.80;1.98;;;;;;;16.06;77.10;102476.22;4973822;28;100685;-26
2023/10/01 00:08:01;;;;;;;5.63;2.17;;;;;;;16.04;77.30;102454.47;4974049;28;96659;-26
2023/10/01 00:10:26;;;;;;;4.45;2.10;;;;;;;16.03;76.84;102447.22;4975983;28;96869;-26
2023/10/01 00:12:56;;;;;;;4.63;1.67;;;;;;;16.02;76.81;102448.19;4975057;28;99621;-26
2023/10/01 00:15:24;;;;;;;4.90;1.95;;;;;;;16.01;76.51;102442.81;4975130;28;99279;-25
2023/10/01 00:17:50;;;;;;;8.18;2.00;;;;;;;15.96;76.21;102428.53;4973638;28;96616;-27
2023/10/01 00:20:27;;;;;;;4.53;1.52;;;;;;;15.94;76.25;102428.63;4973958;28;96848;-26
2023/10/01 00:22:57;;;;;;;5.40;1.75;;;;;;;15.90;76.18;102433.41;4975444;28;98486;-26
2023/10/01 00:25:23;;;;;;;3.72;1.50;;;;;;;15.93;76.05;102448.75;4974926;28;99305;-26
2023/10/01 00:27:49;;;;;;;3.65;1.60;;;;;;;15.87;76.02;102435.41;4973911;28;96754;-25
2023/10/01 00:30:15;;;;;;;4.22;1.77;;;;;;;15.90;76.09;102446.19;4975351;28;96772;-26
2023/10/01 00:32:41;;;;;;;2.85;1.30;;;;;;;15.86;76.13;102433.66;4973514;28;101232;-26
2023/10/01 00:35:07;;;;;;;7.22;1.90;;;;;;;15.83;75.65;102434.72;4975284;28;97753;-26
2023/10/01 00:37:34;;;;;;;4.75;1.40;;;;;;;15.85;75.83;102430.06;4973927;28;96735;-26
2023/10/01 00:40:00;;;;;;;3.33;1.40;;;;;;;15.83;76.02;102431.13;4973590;28;98746;-26
2023/10/01 00:42:28;;;;;;;4.97;1.60;;;;;;;15.84;76.20;102433.75;4973057;28;100994;-26
2023/10/01 00:44:54;;;;;;;3.47;1.20;;;;;;;15.88;76.29;102438.06;4972801;28;101063;-26
2023/10/01 00:47:24;;;;;;;6.40;1.80;;;;;;;15.85;76.14;102431.88;4974934;28;96522;-26
2023/10/01 00:49:49;;;;;;;7.75;1.70;;;;;;;15.85;76.14;102434.63;4974509;28;96761;-26
2023/10/01 00:52:20;;;;;;;4.22;2.00;;;;;;;15.87;75.90;102438.16;4973455;28;101171;-26
2023/10/01 00:54:47;;;;;;;4.50;1.65;;;;;;;15.87;76.31;102427.22;4973418;28;100891;-26
2023/10/01 00:57:16;;;;;;;5.57;1.58;;;;;;;15.87;76.22;102429.94;4973710;28;96587;-26
2023/10/01 00:59:45;;;;;;;4.05;1.10;;;;;;;15.87;76.36;102430.84;4974066;28;96886;-27
2023/10/01 01:02:15;;;;;;;4.75;1.42;;;;;;;15.88;76.33;102426.25;4974575;28;97864;-25
2023/10/01 01:04:44;;;;;;;6.35;1.95;;;;;;;15.85;76.40;102421.88;4957529;28;101406;-25
2023/10/01 01:07:20;;;;;;;3.95;1.70;;;;;;;15.83;76.41;102417.47;4973126;28;96633;-26
2023/10/01 01:09:46;;;;;;;2.83;1.45;;;;;;;15.88;76.32;102421.69;4974819;28;96756;-26
2023/10/01 01:12:12;;;;;;;2.65;1.25;;;;;;;15.83;76.34;102418.34;4973193;28;101271;-26
2023/10/01 01:14:44;;;;;;;4.40;1.65;;;;;;;15.83;76.32;102422.94;4972776;28;101518;-26
2023/10/01 01:17:10;;;;;;;4.50;1.55;;;;;;;15.78;76.45;102411.34;4974853;28;96549;-26
2023/10/01 01:19:36;;;;;;;6.50;1.98;;;;;;;15.72;76.38;102412.59;4973387;28;96864;-26
2023/10/01 01:22:01;;;;;;;4.85;2.00;;;;;;;15.71;76.55;102400.81;4973011;28;100854;-26
2023/10/01 01:24:29;;;;;;;6.40;1.70;;;;;;;15.74;76.60;102396.13;4974607;28;98963;-26
2023/10/01 01:27:00;;;;;;;4.43;1.33;;;;;;;15.71;76.72;102400.81;4973355;28;96781;-26
2023/10/01 01:29:33;;;;;;;6.38;1.40;;;;;;;15.71;76.73;102405.41;4973312;28;96774;-26
2023/10/01 01:32:13;;;;;;;5.20;1.70;;;;;;;15.70;76.61;102409.09;4973729;28;99580;-26
2023/10/01 01:34:40;;;;;;;3.63;1.50;;;;;;;15.67;76.76;102390.97;4974540;28;97895;-26
2023/10/01 01:37:06;;;;;;;7.28;2.22;;;;;;;15.73;76.80;102391.63;4973299;28;96714;-26
2023/10/01 01:39:48;;;;;;;5.18;1.90;;;;;;;15.75;76.77;102395.16;4972811;28;96819;-26
2023/10/01 01:42:17;;;;;;;4.10;1.73;;;;;;;15.70;77.13;102393.56;4974412;28;97352;-25
2023/10/01 01:44:42;;;;;;;6.60;2.00;;;;;;;15.67;77.10;102393.72;4972186;28;101119;-26
2023/10/01 01:47:08;;;;;;;9.40;1.83;;;;;;;15.71;77.31;102394.47;4974834;28;96575;-26
2023/10/01 01:49:33;;;;;;;9.30;2.05;;;;;;;15.67;77.26;102381.91;4974748;28;96823;-26
2023/10/01 01:52:03;;;;;;;3.45;1.45;;;;;;;15.63;77.28;102380.31;4974075;28;97289;-27
2023/10/01 01:54:39;;;;;;;3.33;1.67;;;;;;;15.67;77.34;102382.78;4972757;28;100765;-26
2023/10/01 01:57:12;;;;;;;5.80;2.17;;;;;;;15.68;77.00;102383.66;4974218;28;96605;-26
2023/10/01 01:59:39;;;;;;;6.90;1.90;;;;;;;15.68;77.18;102389.13;4974182;28;96695;-25
2023/10/01 02:02:09;;;;;;;2.83;1.45;;;;;;;15.60;77.05;102375.06;4975961;28;101288;-25
2023/10/01 02:04:35;;;;;;;7.53;1.98;;;;;;;15.62;77.31;102384.03;4975861;28;100820;-26
2023/10/01 02:07:00;;;;;;;6.30;2.20;;;;;;;15.64;77.10;102388.44;4977941;28;96596;-26
2023/10/01 02:09:26;;;;;;;5.20;1.90;;;;;;;15.63;77.51;102383.06;4977390;28;96831;-26
2023/10/01 02:11:52;;;;;;;6.40;2.20;;;;;;;15.64;77.19;102387.56;4977420;28;97959;-25
2023/10/01 02:14:30;;;;;;;5.80;2.13;;;;;;;15.66;77.21;102394.69;4976175;28;100832;-26
2023/10/01 02:17:10;;;;;;;4.25;1.75;;;;;;;15.62;77.28;102387.66;4977392;28;96678;-26
2023/10/01 02:19:39;;;;;;;3.70;1.65;;;;;;;15.64;77.18;102388.44;4976025;28;96810;-26
2023/10/01 02:22:05;;;;;;;4.45;1.30;;;;;;;15.65;76.91;102387.47;4976563;28;98000;-26
2023/10/01 02:27:11;;;;;;;4.72;1.65;;;;;;;15.65;77.62;102373.81;4976907;28;97262;-26
2023/10/01 02:29:45;;;;;;;4.22;1.67;;;;;;;15.67;77.31;102385.53;4975336;28;96812;-26
2023/10/01 02:32:14;;;;;;;6.75;2.53;;;;;;;15.64;77.31;102382.09;4976753;28;99392;-26
2023/10/01 02:34:43;;;;;;;4.47;1.75;;;;;;;15.65;77.62;102384.72;4975434;28;100886;-26
2023/10/01 02:37:09;;;;;;;7.22;1.80;;;;;;;15.63;77.57;102378.47;4975725;28;96525;-27
2023/10/01 02:39:37;;;;;;;6.72;1.92;;;;;;;15.59;77.88;102374.19;4975810;28;96847;-26
2023/10/01 02:44:38;;;;;;;6.97;1.80;;;;;;;15.63;77.70;102385.78;4976176;28;97716;-26
2023/10/01 02:47:09;;;;;;;;;;;;;;;15.63;77.91;102389.41;4975637;28;96576;-26
2023/10/01 02:49:52;;;;;;;6.10;1.67;;;;;;;15.59;78.01;102379.63;4975677;28;96621;-26
2023/10/01 02:52:22;;;;;;;7.80;1.92;;;;;;;15.61;78.02;102379.53;4976735;28;98353;-26
2023/10/01 02:54:54;;;;;;;9.65;2.10;;;;;;;15.59;77.87;102371.44;4976314;28;99188;-26
2023/10/01 02:57:24;;;;;;;3.75;1.83;;;;;;;15.58;78.23;102376.97;4975487;28;96699;-26
2023/10/01 03:02:38;;;;;;;4.40;1.80;;;;;;;15.53;78.34;102370.91;4976263;28;97080;-26
2023/10/01 03:05:08;;;;;;;5.32;2.25;;;;;;;15.54;78.53;102379.03;4975276;28;98908;-26
2023/10/01 03:07:40;;;;;;;5.13;1.83;;;;;;;15.56;78.43;102379.78;4975173;28;96866;-26
2023/10/01 03:10:14;;;;;;;5.95;1.85;;;;;;;15.53;78.24;102374.53;4975034;28;96811;-26
2023/10/01 03:12:40;;;;;;;5.75;2.03;;;;;;;15.54;78.39;102379.03;4975451;28;97061;-26
2023/10/01 03:17:39;;;;;;;6.88;1.92;;;;;;;15.54;78.65;102370.84;4976543;28;97135;-26
2023/10/01 03:22:53;;;;;;;5.57;2.25;;;;;;;15.55;78.94;102374.44;4976534;28;97169;-26
2023/10/01 03:25:28;;;;;;;3.50;1.77;;;;;;;15.48;78.81;102372.06;4975977;28;97823;-26
2023/10/01 03:27:59;;;;;;;8.00;1.75;;;;;;;15.52;79.15;102370.03;4974711;28;96526;-25
2023/10/01 03:30:32;;;;;;;5.90;2.33;;;;;;;15.50;79.55;102372.84;4975206;28;96697;-26
2023/10/01 03:33:01;;;;;;;3.90;1.65;;;;;;;15.52;79.64;102370.03;4975769;28;99343;-26
2023/10/01 03:35:27;;;;;;;6.55;1.90;;;;;;;15.47;79.76;102370.31;4974354;28;100878;-26
2023/10/01 03:38:14;;;;;;;6.57;1.60;;;;;;;15.50;79.54;102375.59;4974346;28;96542;-26
2023/10/01 03:43:37;;;;;;;7.03;2.13;;;;;;;15.53;79.41;102360.88;4975067;28;97111;-26
2023/10/01 03:46:26;;;;;;;8.07;1.58;;;;;;;15.56;79.50;102357.06;4974313;28;100630;-26
2023/10/01 03:49:33;;;;;;;5.85;1.83;;;;;;;15.58;79.50;102369.66;4975442;28;96762;-26
2023/10/01 03:51:53;;;;;;;8.45;2.00;;;;;;;15.54;79.65;102351.72;4975414;28;96751;-26
2023/10/01 03:54:26;;;;;;;5.70;2.35;;;;;;;15.54;79.98;102354.44;4974180;28;101002;-26
2023/10/01 03:56:58;;;;;;;7.07;1.65;;;;;;;15.53;79.39;102346.34;4974486;28;100821;-27
2023/10/01 03:59:24;;;;;;;;;;;;;;;15.55;79.90;102352.59;4974910;28;96745;-25
2023/10/01 04:01:59;;;;;;;5.20;1.42;;;;;;;15.53;79.70;102357.25;4975985;28;96784;-27
2023/10/01 04:04:32;;;;;;;6.03;2.00;;;;;;;15.58;79.57;102364.19;4973616;28;101197;-26
2023/10/01 04:07:11;;;;;;;5.82;1.83;;;;;;;15.58;79.48;102357.88;4974021;28;101537;-27
2023/10/01 04:09:46;;;;;;;8.70;2.40;;;;;;;15.52;79.79;102356.38;4974005;28;96679;-25
2023/10/01 04:12:19;;;;;;;6.85;2.03;;;;;;;15.53;79.83;102360.88;4974474;28;96767;-26
2023/10/01 04:14:48;;;;;;;6.00;2.05;;;;;;;15.54;80.23;102364.47;4975210;28;99905;-26
2023/10/01 04:17:21;;;;;;;2.78;1.63;;;;;;;15.53;80.09;102358.13;4973786;28;99413;-26
2023/10/01 04:19:57;;;;;;;4.80;2.00;;;;;;;15.53;80.02;102357.25;4975444;28;96617;-27
2023/10/01 04:22:25;;;;;;;4.80;1.70;;;;;;;15.50;80.29;102353.72;4975367;28;96763;-26
2023/10/01 04:25:12;;;;;;;7.93;2.33;;;;;;;15.48;80.48;102352.94;4973438;28;100952;-26
2023/10/01 04:27:41;;;;;;;4.53;1.80;;;;;;;15.51;80.50;102357.34;4974852;28;98131;-26
2023/10/01 04:30:08;;;;;;;5.88;2.40;;;;;;;15.43;80.56;102349.59;4974892;28;96748;-26
2023/10/01 04:32:36;;;;;;;4.30;1.58;;;;;;;15.40;80.68;102352.50;4973658;28;96931;-26
2023/10/01 04:35:14;;;;;;;6.53;2.28;;;;;;;15.39;80.59;102361.66;4973700;28;100879;-26
2023/10/01 04:37:43;;;;;;;7.50;2.30;;;;;;;15.36;80.97;102366.44;4975225;28;98109;-26
2023/10/01 04:42:56;;;;;;;6.03;2.03;;;;;;;15.32;80.82;102362.09;4974974;28;96499;-26
2023/10/01 04:45:24;;;;;;;5.43;1.95;;;;;;;15.34;81.17;102363.78;4973010;28;101138;-26
2023/10/01 04:47:56;;;;;;;4.82;1.77;;;;;;;15.28;81.28;102358.69;4973832;28;100788;-26
2023/10/01 04:50:27;;;;;;;4.55;1.77;;;;;;;15.22;81.35;102359.03;4973557;28;96623;-26
2023/10/01 04:52:59;;;;;;;4.30;1.88;;;;;;;15.15;81.31;102350.28;4974994;28;96781;-26
2023/10/01 04:55:28;;;;;;;6.13;2.22;;;;;;;15.20;81.53;102356.38;4974363;28;98063;-26
2023/10/01 04:57:56;;;;;;;7.07;2.00;;;;;;;15.23;81.71;102358.03;4973340;28;101163;-26
2023/10/01 05:00:22;;;;;;;5.65;2.05;;;;;;;15.17;81.86;102363.88;4973658;28;96722;-26
2023/10/01 05:02:49;;;;;;;5.97;1.88;;;;;;;15.18;81.92;102366.53;4973689;28;96829;-26
2023/10/01 05:05:25;;;;;;;6.55;2.42;;;;;;;15.15;81.91;102363.94;4973281;28;101071;-25
2023/10/01 05:07:56;;;;;;;7.55;2.10;;;;;;;15.15;82.51;102363.06;4973229;28;99354;-26
2023/10/01 05:10:26;;;;;;;5.00;1.80;;;;;;;15.12;82.28;102357.78;4973515;28;96614;-26
2023/10/01 05:13:02;;;;;;;3.90;1.75;;;;;;;15.07;82.21;102353.47;4973726;28;96998;-26
2023/10/01 05:15:36;;;;;;;5.72;2.30;;;;;;;15.11;82.61;102356.91;4974415;28;99319;-27
2023/10/01 05:18:02;;;;;;;4.80;1.95;;;;;;;15.05;82.07;102354.53;4973048;28;101442;-26
2023/10/01 05:20:28;;;;;;;7.00;2.50;;;;;;;15.03;82.68;102364.63;4973846;28;96616;-26
2023/10/01 05:22:57;;;;;;;5.72;2.03;;;;;;;15.01;82.39;102351.06;4973416;28;96885;-26
2023/10/01 05:25:26;;;;;;;6.63;2.75;;;;;;;15.02;83.17;102361.03;4972882;28;101094;-26
2023/10/01 05:27:56;;;;;;;7.40;2.58;;;;;;;15.04;82.78;102366.38;4973070;28;101631;-25
2023/10/01 05:30:36;;;;;;;6.93;1.98;;;;;;;15.01;82.99;102363.84;4973323;28;96586;-26
2023/10/01 05:33:05;;;;;;;5.15;1.98;;;;;;;15.00;82.85;102373.88;4974384;28;96766;-26
2023/10/01 05:35:33;;;;;;;8.23;2.42;;;;;;;15.03;82.92;102384.63;4976831;28;98038;-26
2023/10/01 05:38:01;;;;;;;7.57;2.72;;;;;;;15.02;83.01;102379.25;4976587;28;101015;-25
2023/10/01 05:40:29;;;;;;;7.18;2.55;;;;;;;15.02;82.66;102376.53;4976682;28;96511;-27
2023/10/01 05:43:12;;;;;;;6.05;2.40;;;;;;;15.02;82.99;102376.53;4976239;28;96957;-26
2023/10/01 05:45:39;;;;;;;4.85;2.20;;;;;;;14.94;82.93;102366.03;4975721;28;101154;-26
2023/10/01 05:48:10;;;;;;;4.32;2.00;;;;;;;14.91;83.33;102366.19;4976173;28;100820;-26
2023/10/01 05:50:38;;;;;;;2.70;1.85;;;;;;;14.81;83.28;102356.78;4976430;28;96524;-26
2023/10/01 05:53:04;;;;;;;6.43;2.25;;;;;;;14.88;83.17;102368.25;4977925;28;96750;-26
2023/10/01 05:55:30;;;;;;;7.25;2.47;;;;;;;14.84;83.59;102379.28;4977614;28;98052;-26
2023/10/01 05:58:12;;;;;;;7.43;2.72;;;;;;;14.80;83.70;102385.00;4975835;28;100948;-26
2023/10/01 06:00:45;;;;;;;6.53;2.60;;;;;;;14.81;83.82;102384.06;4978016;28;96579;-26
2023/10/01 06:03:18;;;;;;;4.65;2.22;;;;;;;14.85;83.64;102385.66;4978390;28;96581;-26
2023/10/01 06:05:50;;;;;;;7.43;2.38;;;;;;;14.84;84.07;102383.88;4976234;28;99455;-26
2023/10/01 06:08:24;;;;;;;5.88;2.60;;;;;;;14.77;83.80;102375.13;4976871;28;99404;-26
2023/10/01 06:11:13;;;;;;;6.68;2.42;;;;;;;14.80;83.93;102371.34;4975601;28;96793;-26
2023/10/01 06:13:39;;;;;;;4.90;2.08;;;;;;;14.79;83.92;102378.66;4977617;28;96560;-26
2023/10/01 06:16:16;;;;;;;5.78;2.25;;;;;;;14.80;83.86;102377.72;4975730;28;101069;-26
2023/10/01 06:18:51;;;;;;;6.93;2.28;;;;;;;14.82;83.64;102378.50;4976921;28;99282;-26
2023/10/01 06:21:20;;;;;;;5.07;2.17;;;;;;;14.86;83.91;102371.03;4977506;28;96610;-28
2023/10/01 06:23:49;;;;;;;6.75;2.45;;;;;;;14.83;83.89;102368.50;4977087;28;96916;-26
2023/10/01 06:29:25;;;;;;;5.68;1.90;;;;;;;14.81;83.96;102381.31;4975313;28;99132;-26
2023/10/01 06:32:00;;;;;;;7.07;2.40;;;;;;;14.83;84.27;102380.28;4975920;28;96633;-26
2023/10/01 06:34:31;;;;;;;9.23;2.47;;;;;;;14.84;84.31;102376.56;4977012;28;96688;-26
2023/10/01 06:37:01;;;;;;;5.60;1.98;;;;;;;14.88;84.09;102369.13;4975044;28;101215;-26
2023/10/01 06:39:32;;;;;;;7.53;2.42;;;;;;;14.91;83.95;102377.13;4976419;28;99446;-27
2023/10/01 06:42:18;;;;;;;4.63;2.03;;;;;;;14.89;83.88;102372.72;4975547;28;96705;-26
2023/10/01 06:44:44;;;;;;;6.57;2.22;;;;;;;14.92;84.12;102376.16;4976458;28;96905;-27
2023/10/01 06:47:17;;;;;;;5.25;2.08;;;;;;;14.93;84.44;102369.72;4975912;28;97978;-27
2023/10/01 06:50:20;;;;;;;5.32;2.22;;;;;;;14.98;84.26;102373.09;4976780;28;97837;-28
2023/10/01 06:52:44;;;;;;;4.65;1.85;;;;;;;14.98;84.50;102374.94;4975508;28;96880;-28
2023/10/01 06:55:25;;;;;;;7.07;2.08;;;;;;;15.00;84.01;102364.81;4977404;28;96540;-28
2023/10/01 06:57:52;;;;;;;5.38;2.28;;;;;;;15.07;84.16;102371.69;4976410;28;99751;-28
2023/10/01 07:00:21;;;;;;;7.35;2.78;;;;;;;15.14;83.83;102386.75;4975046;28;101099;-28
2023/10/01 07:02:49;;;;;;;7.28;2.45;;;;;;;15.20;83.91;102377.34;4976030;28;96608;-27
2023/10/01 07:05:20;;;;;;;6.63;2.55;;;;;;;15.21;83.87;102370.94;4976599;28;96825;-28
2023/10/01 07:07:45;;;;;;;6.43;1.97;;;;;;;15.23;83.82;102375.31;4976219;28;99547;-28
2023/10/01 07:10:11;;;;;;;11.55;2.97;;;;;;;15.33;83.83;102383.00;4976023;28;99277;-28
2023/10/01 07:12:38;;;;;;;8.32;2.53;;;;;;;15.34;83.65;102365.63;4976457;28;96466;-27
2023/10/01 07:15:04;;;;;;;6.18;2.60;;;;;;;15.47;83.70;102370.31;4974880;28;96831;-28
2023/10/01 07:17:31;;;;;;;9.63;2.78;;;;;;;15.60;83.26;102375.94;4974816;28;99048;-28
2023/10/01 07:19:59;;;;;;;6.45;2.60;;;;;;;15.75;82.57;102367.84;4975075;28;100876;-28
2023/10/01 07:22:32;;;;;;;7.53;2.33;;;;;;;15.95;81.82;102381.22;4976445;28;96610;-28
2023/10/01 07:25:00;;;;;;;7.07;3.08;;;;;;;16.18;81.25;102385.25;4976571;28;96686;-28
2023/10/01 07:27:29;;;;;;;8.48;2.92;;;;;;;16.27;80.58;102389.31;4974035;28;101213;-28
2023/10/01 07:29:56;;;;;;;6.28;2.67;;;;;;;16.39;80.14;102383.09;4976025;28;97448;-28
2023/10/01 07:32:25;;;;;;;10.48;2.55;;;;;;;16.45;79.78;102379.97;4974710;28;96667;-28
2023/10/01 07:34:58;;;;;;;8.85;2.50;;;;;;;16.65;79.79;102380.59;4976185;28;96783;-28
2023/10/01 07:37:25;;;;;;;4.75;2.05;;;;;;;16.80;79.16;102390.59;4974591;28;101108;-27
2023/10/01 07:40:08;;;;;;;7.85;3.13;;;;;;;16.97;78.54;102393.16;4973970;28;100764;-28
2023/10/01 07:42:46;;;;;;;7.25;2.60;;;;;;;17.07;78.45;102381.63;4976387;28;96669;-28
2023/10/01 07:45:16;;;;;;;6.95;2.58;;;;;;;17.20;78.17;102383.44;4975653;28;96672;-28
2023/10/01 07:47:42;;;;;;;6.30;2.63;;;;;;;17.35;77.32;102395.28;4974203;28;101251;-28
2023/10/01 07:50:12;;;;;;;5.82;2.42;;;;;;;17.48;77.41;102381.63;4974054;28;100402;-28
2023/10/01 07:52:41;;;;;;;10.70;2.65;;;;;;;17.66;76.88;102389.59;4975174;28;96687;-28
2023/10/01 07:58:16;;;;;;;7.47;2.53;;;;;;;17.84;76.35;102382.91;4975640;28;97131;-29
2023/10/01 08:00:39;;;;;;;7.03;2.67;;;;;;;17.93;76.33;102378.69;4975281;28;98652;-28
2023/10/01 08:05:49;;;;;;;9.82;2.97;;;;;;;18.07;75.75;102375.88;4974079;28;96609;-28
2023/10/01 08:08:27;;;;;;;8.23;3.08;;;;;;;18.10;75.04;102372.91;4974055;28;99425;-28
2023/10/01 08:10:54;;;;;;;8.55;2.67;;;;;;;18.07;75.23;102378.63;4974363;28;100945;-28
2023/10/01 08:13:25;;;;;;;7.35;2.40;;;;;;;18.19;75.49;102375.03;4974120;28;96801;-28
2023/10/01 08:15:57;;;;;;;8.43;2.75;;;;;;;18.17;75.63;102382.47;4974252;28;96801;-28
2023/10/01 08:18:46;;;;;;;;;;;;;;;18.13;75.62;102383.66;4973808;28;100775;-28
2023/10/01 08:21:16;;;;;;;7.80;2.65;;;;;;;18.13;76.42;102385.53;4975210;28;98568;-28
2023/10/01 08:23:48;;;;;;;7.07;2.50;;;;;;;18.12;76.17;102384.66;4973815;28;96745;-28
2023/10/01 08:26:43;;;;;;;6.03;2.38;;;;;;;18.06;76.18;102367.75;4974094;28;96818;-28
2023/10/01 08:29:08;;;;;;;6.43;2.53;;;;;;;17.96;76.62;102373.84;4974936;28;98775;-28
2023/10/01 08:34:24;;;;;;;11.50;2.75;;;;;;;18.00;76.21;102385.50;4975024;28;96598;-28
2023/10/01 08:36:54;;;;;;;4.57;2.15;;;;;;;18.06;76.54;102378.72;4975887;28;96599;-29
2023/10/01 08:39:20;;;;;;;9.23;3.05;;;;;;;18.07;76.69;102392.31;4973476;28;101056;-28
2023/10/01 08:41:51;;;;;;;5.75;2.65;;;;;;;18.09;76.56;102375.75;4975014;28;97784;-28
2023/10/01 08:44:30;;;;;;;9.53;2.60;;;;;;;18.02;76.85;102380.81;4972566;28;97755;-28
2023/10/01 08:47:00;;;;;;;6.35;2.53;;;;;;;17.96;77.23;102378.47;4973781;28;96706;-27
2023/10/01 08:49:31;;;;;;;7.25;2.58;;;;;;;17.92;77.00;102376.91;4974654;28;99297;-28
2023/10/01 08:52:19;;;;;;;7.80;2.55;;;;;;;18.01;77.29;102370.81;4973504;28;100777;-28
2023/10/01 08:54:45;;;;;;;8.48;2.63;;;;;;;18.17;77.03;102373.38;4974885;28;96659;-28
2023/10/01 08:57:18;;;;;;;9.10;2.97;;;;;;;18.39;76.41;102381.84;4973521;28;96688;-27
2023/10/01 08:59:46;;;;;;;7.63;2.50;;;;;;;18.60;75.92;102384.94;4974649;28;99852;-28
2023/10/01 09:02:19;;;;;;;9.77;2.88;;;;;;;18.65;75.51;102370.91;4975116;28;97402;-29
2023/10/01 09:04:45;;;;;;;8.55;2.97;;;;;;;18.85;75.08;102385.97;4974842;28;96492;-28
2023/10/01 09:07:18;;;;;;;7.05;3.05;;;;;;;18.91;74.87;102376.41;4973705;28;97014;-28
2023/10/01 09:09:52;;;;;;;9.13;2.58;;;;;;;19.02;74.34;102379.25;4971777;28;100975;-29
2023/10/01 09:12:18;;;;;;;12.77;3.03;;;;;;;19.15;74.34;102382.84;4973296;28;100802;-28
2023/10/01 09:14:46;;;;;;;9.35;3.10;;;;;;;19.38;74.01;102389.41;4973484;28;96567;-28
2023/10/01 09:17:27;;;;;;;9.10;3.17;;;;;;;19.59;73.25;102389.66;4973358;28;96860;-27
2023/10/01 09:19:53;;;;;;;8.10;2.77;;;;;;;19.74;72.59;102384.91;4973038;28;101098;-28
2023/10/01 09:22:35;;;;;;;10.10;3.10;;;;;;;19.85;72.16;102382.22;4974330;28;99231;-28
2023/10/01 09:25:21;;;;;;;9.55;3.03;;;;;;;20.08;71.47;102383.19;4973414;28;96655;-28
2023/10/01 09:28:19;;;;;;;5.68;2.53;;;;;;;20.16;71.70;102379.84;4973871;28;96897;-28
2023/10/01 09:31:02;;;;;;;8.00;2.85;;;;;;;20.32;70.99;102385.91;4974544;28;98100;-28
2023/10/01 09:33:29;;;;;;;9.35;2.58;;;;;;;20.37;70.13;102375.41;4974837;28;97315;-28
2023/10/01 09:36:02;;;;;;;9.30;2.90;;;;;;;20.46;70.79;102371.06;4974224;28;96511;-28
2023/10/01 09:38:28;;;;;;;10.30;3.45;;;;;;;20.64;70.77;102373.38;4973084;28;96735;-28
2023/10/01 09:40:56;;;;;;;8.80;3.17;;;;;;;20.74;69.47;102369.78;4974369;28;97953;-28
2023/10/01 09:43:24;;;;;;;9.27;3.13;;;;;;;20.98;70.33;102383.44;4973503;28;97821;-28
2023/10/01 09:45:51;;;;;;;8.60;3.00;;;;;;;21.11;69.62;102374.16;4974673;28;96563;-28
2023/10/01 09:48:35;;;;;;;9.50;3.67;;;;;;;21.31;69.50;102372.50;4974450;28;96813;-28
2023/10/01 09:51:15;;;;;;;9.32;2.78;;;;;;;21.38;69.33;102360.84;4974070;28;99485;-28
2023/10/01 09:53:45;;;;;;;7.22;2.65;;;;;;;21.59;68.59;102371.09;4974393;28;99186;-28
2023/10/01 09:56:15;;;;;;;7.28;2.70;;;;;;;21.74;67.06;102366.19;4973336;28;96591;-28
2023/10/01 09:58:47;;;;;;;9.27;3.17;;;;;;;21.77;67.52;102364.03;4973054;28;96851;-28
2023/10/01 10:01:17;;;;;;;;;;;;;;;21.94;67.88;102364.47;4972730;28;100962;-28
2023/10/01 10:03:43;;;;;;;9.93;2.70;;;;;;;22.01;67.57;102354.66;4972628;28;100947;-28
2023/10/01 10:06:10;;;;;;;7.53;2.88;;;;;;;22.20;67.25;102367.75;4972993;28;96629;-28
2023/10/01 10:08:38;;;;;;;10.63;2.92;;;;;;;22.32;66.28;102363.09;4973007;28;96884;-27
2023/10/01 10:11:06;;;;;;;8.90;2.95;;;;;;;22.38;66.03;102363.41;4973861;28;98100;-28
2023/10/01 10:14:00;;;;;;;6.97;3.22;;;;;;;22.43;65.41;102363.03;4973904;28;97787;-28
2023/10/01 10:16:33;;;;;;;11.00;3.15;;;;;;;22.60;65.06;102362.41;4973832;28;96690;-28
2023/10/01 10:19:08;;;;;;;7.07;2.67;;;;;;;22.62;64.55;102357.63;4974529;28;96842;-28
2023/10/01 10:24:46;;;;;;;8.50;3.03;;;;;;;23.13;64.62;102358.59;4976726;28;97745;-28
2023/10/01 10:27:19;;;;;;;8.90;3.22;;;;;;;23.08;63.46;102345.19;4977086;28;96526;-28
2023/10/01 10:29:55;;;;;;;10.88;2.97;;;;;;;23.32;63.92;102350.38;4975761;28;96724;-28
2023/10/01 10:32:24;;;;;;;11.70;3.75;;;;;;;23.50;63.37;102350.56;4976335;28;99355;-28
2023/10/01 10:35:05;;;;;;;6.88;3.22;;;;;;;23.59;61.48;102348.81;4975436;28;100710;-29
2023/10/01 10:37:36;;;;;;;7.03;2.80;;;;;;;23.54;62.31;102342.84;4975659;28;96581;-29
2023/10/01 10:40:04;;;;;;;;;;;;;;;23.61;61.80;102345.91;4977335;28;96901;-29
2023/10/01 10:42:30;;;;;;;10.38;3.08;;;;;;;23.62;62.09;102337.50;4975357;28;101071;-28
2023/10/01 10:45:20;;;;;;;10.02;3.13;;;;;;;23.67;62.46;102346.22;4974968;28;100745;-28
2023/10/01 10:47:58;;;;;;;10.48;3.28;;;;;;;23.45;61.03;102335.41;4977107;28;96493;-28
2023/10/01 10:50:49;;;;;;;7.80;2.75;;;;;;;23.31;62.31;102342.19;4974732;28;96789;-30
2023/10/01 10:53:19;;;;;;;11.57;2.90;;;;;;;23.27;62.19;102344.41;4975945;28;99468;-28
2023/10/01 10:56:06;;;;;;;10.95;3.10;;;;;;;23.19;61.58;102341.47;4975061;28;101060;-28
2023/10/01 10:59:04;;;;;;;7.80;2.65;;;;;;;23.30;62.21;102346.00;4974287;28;96982;-31
2023/10/01 11:01:46;;;;;;;8.20;2.92;;;;;;;23.31;61.90;102342.19;4973025;28;97208;-30
2023/10/01 11:04:14;;;;;;;11.23;3.08;;;;;;;23.35;62.36;102342.81;4973085;28;101140;-28
2023/10/01 11:06:40;;;;;;;9.75;3.10;;;;;;;23.44;62.55;102344.72;4972476;28;98921;-27
2023/10/01 11:09:22;;;;;;;8.93;2.90;;;;;;;23.62;61.52;102343.03;4972536;28;97000;-26
2023/10/01 11:11:49;;;;;;;7.70;2.97;;;;;;;23.66;61.51;102355.53;4973547;28;97356;-29
2023/10/01 11:14:16;;;;;;;9.95;3.33;;;;;;;23.85;61.56;102342.78;4972764;28;101369;-25
2023/10/01 11:16:44;;;;;;;11.05;3.05;;;;;;;24.00;61.07;102333.00;4972376;28;100983;-25
2023/10/01 11:19:14;;;;;;;9.90;3.28;;;;;;;24.04;59.95;102340.00;4972894;28;97026;-25
2023/10/01 11:21:55;;;;;;;11.43;2.92;;;;;;;24.10;60.99;102341.31;4976399;28;96689;-26
2023/10/01 11:24:30;;;;;;;11.30;2.60;;;;;;;23.90;59.17;102323.81;4976308;28;98107;-26
2023/10/01 11:27:20;;;;;;;8.30;2.72;;;;;;;23.97;59.36;102322.22;4974563;28;100903;-28
2023/10/01 11:29:59;;;;;;;6.47;2.65;;;;;;;24.04;59.74;102330.81;4974873;28;96995;-25
2023/10/01 11:35:34;;;;;;;10.75;3.20;;;;;;;24.24;60.88;102331.66;4975917;28;97176;-26
2023/10/01 11:38:19;;;;;;;8.48;3.50;;;;;;;24.37;60.26;102335.00;4976373;28;97909;-26
2023/10/01 11:41:07;;;;;;;8.30;2.65;;;;;;;24.35;60.03;102334.28;4976063;28;96590;-25
2023/10/01 11:44:00;;;;;;;8.75;3.13;;;;;;;24.33;59.62;102326.09;4991441;28;96855;-27
2023/10/01 11:49:32;;;;;;;9.05;2.85;;;;;;;24.40;60.71;102331.06;4994691;28;96917;-26
2023/10/01 11:52:05;;;;;;;7.28;2.60;;;;;;;24.36;59.75;102313.88;4955036;28;96473;-26
2023/10/01 11:54:52;;;;;;;9.23;3.15;;;;;;;24.43;60.08;102330.75;4956556;28;96761;-25
2023/10/01 11:57:22;;;;;;;13.05;3.28;;;;;;;24.50;59.91;102321.75;4956016;28;99156;-25
2023/10/01 11:59:55;;;;;;;11.35;3.42;;;;;;;24.61;60.08;102317.91;4954531;28;102240;-26
2023/10/01 12:02:25;;;;;;;11.38;3.28;;;;;;;24.59;58.17;102318.06;4954852;28;97065;-26
2023/10/01 12:04:58;;;;;;;12.20;3.20;;;;;;;24.56;59.53;102310.06;4961256;28;96920;-26
2023/10/01 12:07:39;;;;;;;10.05;3.22;;;;;;;24.69;59.97;102317.16;4975704;28;97960;-26
2023/10/01 12:10:06;;;;;;;10.97;3.53;;;;;;;24.73;59.77;102296.44;4974049;28;101148;-25
2023/10/01 12:12:38;;;;;;;7.93;2.78;;;;;;;24.85;59.10;102309.06;4975233;28;96681;-25
2023/10/01 12:17:49;;;;;;;8.02;2.88;;;;;;;25.05;59.50;102297.88;4995559;28;97117;-26
2023/10/01 12:20:23;;;;;;;7.13;2.90;;;;;;;25.16;59.11;102294.91;4995366;28;97970;-27
2023/10/01 12:23:10;;;;;;;7.80;2.80;;;;;;;25.18;58.04;102295.66;4994198;28;96622;-25
2023/10/01 12:28:27;;;;;;;9.27;2.90;;;;;;;25.20;58.76;102293.63;4993821;28;97000;-27
2023/10/01 12:31:09;;;;;;;10.27;3.33;;;;;;;25.06;58.49;102294.97;4983173;28;97940;-25